createdAt,value
2019-02-02T00:00:21.820Z,984.75
2019-02-02T00:01:21.833Z,984.74
2019-02-02T00:02:21.860Z,984.75
2019-02-02T00:03:21.778Z,984.70
2019-02-02T00:04:21.783Z,984.71
2019-02-02T00:05:21.765Z,984.69
2019-02-02T00:06:21.743Z,984.65
2019-02-02T00:07:21.732Z,984.69
2019-02-02T00:08:21.734Z,984.63
2019-02-02T00:09:21.761Z,984.68
2019-02-02T00:10:21.690Z,984.64
2019-02-02T00:11:21.687Z,984.63
2019-02-02T00:12:26.357Z,984.64
2019-02-02T00:13:21.715Z,984.65
2019-02-02T00:14:21.678Z,984.67
2019-02-02T00:15:21.634Z,984.69
2019-02-02T00:16:21.650Z,984.65
2019-02-02T00:17:21.620Z,984.63
2019-02-02T00:18:21.671Z,984.63
2019-02-02T00:19:21.714Z,984.59
2019-02-02T00:20:21.582Z,984.68
2019-02-02T00:21:21.565Z,984.63
2019-02-02T00:22:21.578Z,984.67
2019-02-02T00:23:21.601Z,984.69
2019-02-02T00:24:21.542Z,984.68
2019-02-02T00:25:21.535Z,984.71
2019-02-02T00:26:21.506Z,984.73
2019-02-02T00:27:21.506Z,984.77
2019-02-02T00:28:21.491Z,984.80
2019-02-02T00:29:21.502Z,984.80
2019-02-02T00:30:21.467Z,984.86
2019-02-02T00:31:21.504Z,984.83
2019-02-02T00:32:21.454Z,984.85
2019-02-02T00:33:21.438Z,984.82
2019-02-02T00:34:21.435Z,984.78
2019-02-02T00:35:21.430Z,984.81
2019-02-02T00:36:21.419Z,984.81
2019-02-02T00:37:21.391Z,984.79
2019-02-02T00:38:21.391Z,984.80
2019-02-02T00:39:21.430Z,984.79
2019-02-02T00:40:21.413Z,984.80
2019-02-02T00:41:21.339Z,984.78
2019-02-02T00:42:25.945Z,984.76
2019-02-02T00:43:21.351Z,984.79
2019-02-02T00:44:21.316Z,984.76
2019-02-02T00:45:21.344Z,984.76
2019-02-02T00:46:21.302Z,984.75
2019-02-02T00:47:21.286Z,984.72
2019-02-02T00:48:21.258Z,984.74
2019-02-02T00:49:21.257Z,984.71
2019-02-02T00:50:21.249Z,984.76
2019-02-02T00:51:21.267Z,984.69
2019-02-02T00:52:21.226Z,984.69
2019-02-02T00:53:21.277Z,984.73
2019-02-02T00:54:21.201Z,984.69
2019-02-02T00:55:21.256Z,984.73
2019-02-02T00:56:21.172Z,984.72
2019-02-02T00:57:21.165Z,984.71
2019-02-02T00:58:21.154Z,984.76
2019-02-02T00:59:21.200Z,984.79
2019-02-02T01:00:21.149Z,984.79
2019-02-02T01:01:21.132Z,984.78
2019-02-02T01:02:21.098Z,984.79
2019-02-02T01:03:21.088Z,984.77
2019-02-02T01:04:21.085Z,984.84
2019-02-02T01:05:21.076Z,984.79
2019-02-02T01:06:21.053Z,984.78
2019-02-02T01:07:21.049Z,984.80
2019-02-02T01:08:21.043Z,984.84
2019-02-02T01:09:21.063Z,984.78
2019-02-02T01:10:21.007Z,984.78
2019-02-02T01:11:20.999Z,984.81
2019-02-02T01:12:20.994Z,984.83
2019-02-02T01:13:21.014Z,984.83
2019-02-02T01:14:20.978Z,984.84
2019-02-02T01:15:20.964Z,984.84
2019-02-02T01:16:20.941Z,984.88
2019-02-02T01:17:20.928Z,984.85
2019-02-02T01:18:20.917Z,984.84
2019-02-02T01:19:20.916Z,984.87
2019-02-02T01:20:20.909Z,984.81
2019-02-02T01:21:20.990Z,984.82
2019-02-02T01:22:20.879Z,984.79
2019-02-02T01:23:20.915Z,984.78
2019-02-02T01:24:20.919Z,984.80
2019-02-02T01:25:20.926Z,984.81
2019-02-02T01:26:20.844Z,984.86
2019-02-02T01:27:20.888Z,984.84
2019-02-02T01:28:20.832Z,984.84
2019-02-02T01:29:20.850Z,984.82
2019-02-02T01:30:20.810Z,984.83
2019-02-02T01:31:20.783Z,984.84
2019-02-02T01:32:20.771Z,984.82
2019-02-02T01:33:20.772Z,984.83
2019-02-02T01:34:20.738Z,984.85
2019-02-02T01:35:20.745Z,984.82
2019-02-02T01:36:20.727Z,984.85
2019-02-02T01:37:20.711Z,984.85
2019-02-02T01:38:20.707Z,984.89
2019-02-02T01:39:20.702Z,984.91
2019-02-02T01:40:20.690Z,984.93
2019-02-02T01:41:20.665Z,984.91
2019-02-02T01:42:20.733Z,984.96
2019-02-02T01:43:20.639Z,984.95
2019-02-02T01:44:20.693Z,984.95
2019-02-02T01:45:20.628Z,984.96
2019-02-02T01:46:20.614Z,984.96
2019-02-02T01:47:20.593Z,984.94
2019-02-02T01:48:20.583Z,984.92
2019-02-02T01:49:20.583Z,984.93
2019-02-02T01:50:20.670Z,984.96
2019-02-02T01:51:20.555Z,984.97
2019-02-02T01:52:20.540Z,984.97
2019-02-02T01:53:20.547Z,984.95
2019-02-02T01:54:20.508Z,984.97
2019-02-02T01:55:20.509Z,984.96
2019-02-02T01:56:20.490Z,984.97
2019-02-02T01:57:20.487Z,984.97
2019-02-02T01:58:20.543Z,985.02
2019-02-02T01:59:20.463Z,985.01
2019-02-02T02:00:20.459Z,985.04
2019-02-02T02:01:20.467Z,985.07
2019-02-02T02:02:20.465Z,985.06
2019-02-02T02:03:20.415Z,985.08
2019-02-02T02:04:20.405Z,985.13
2019-02-02T02:05:20.434Z,985.12
2019-02-02T02:06:20.387Z,985.14
2019-02-02T02:07:20.379Z,985.14
2019-02-02T02:08:20.361Z,985.10
2019-02-02T02:09:20.352Z,985.11
2019-02-02T02:10:20.373Z,985.12
2019-02-02T02:11:20.327Z,985.14
2019-02-02T02:12:20.370Z,985.18
2019-02-02T02:13:20.315Z,985.16
2019-02-02T02:14:20.297Z,985.21
2019-02-02T02:15:20.281Z,985.16
2019-02-02T02:16:20.280Z,985.09
2019-02-02T02:17:20.258Z,985.10
2019-02-02T02:18:20.240Z,985.11
2019-02-02T02:19:20.332Z,985.11
2019-02-02T02:20:20.217Z,985.13
2019-02-02T02:21:20.402Z,985.12
2019-02-02T02:22:20.211Z,985.15
2019-02-02T02:23:20.180Z,985.15
2019-02-02T02:24:20.177Z,985.19
2019-02-02T02:25:20.161Z,985.17
2019-02-02T02:26:20.178Z,985.15
2019-02-02T02:27:20.147Z,985.15
2019-02-02T02:28:27.870Z,985.18
2019-02-02T02:29:21.121Z,985.16
2019-02-02T02:30:20.168Z,985.13
2019-02-02T02:31:20.146Z,985.14
2019-02-02T02:32:20.123Z,985.16
2019-02-02T02:33:20.084Z,985.12
2019-02-02T02:34:20.062Z,985.14
2019-02-02T02:35:20.055Z,985.12
2019-02-02T02:36:20.045Z,985.15
2019-02-02T02:37:20.025Z,985.16
2019-02-02T02:38:20.023Z,985.20
2019-02-02T02:39:20.011Z,985.17
2019-02-02T02:40:20.008Z,985.19
2019-02-02T02:41:19.998Z,985.17
2019-02-02T02:42:20.007Z,985.21
2019-02-02T02:43:19.967Z,985.22
2019-02-02T02:44:19.947Z,985.18
2019-02-02T02:45:19.953Z,985.18
2019-02-02T02:46:19.976Z,985.18
2019-02-02T02:47:19.955Z,985.18
2019-02-02T02:48:19.904Z,985.22
2019-02-02T02:49:19.885Z,985.17
2019-02-02T02:50:19.900Z,985.21
2019-02-02T02:51:19.898Z,985.25
2019-02-02T02:52:19.861Z,985.23
2019-02-02T02:53:19.842Z,985.19
2019-02-02T02:54:19.921Z,985.20
2019-02-02T02:55:19.861Z,985.24
2019-02-02T02:56:20.766Z,985.25
2019-02-02T02:57:19.817Z,985.29
2019-02-02T02:58:19.831Z,985.28
2019-02-02T02:59:19.778Z,985.28
2019-02-02T03:00:19.762Z,985.31
2019-02-02T03:01:19.805Z,985.31
2019-02-02T03:02:19.746Z,985.29
2019-02-02T03:03:19.741Z,985.34
2019-02-02T03:04:19.718Z,985.32
2019-02-02T03:05:19.710Z,985.32
2019-02-02T03:06:19.779Z,985.33
2019-02-02T03:07:19.714Z,985.40
2019-02-02T03:08:19.670Z,985.38
2019-02-02T03:09:19.660Z,985.38
2019-02-02T03:10:19.649Z,985.35
2019-02-02T03:11:19.639Z,985.39
2019-02-02T03:12:19.740Z,985.37
2019-02-02T03:13:19.614Z,985.39
2019-02-02T03:14:19.621Z,985.40
2019-02-02T03:15:19.606Z,985.42
2019-02-02T03:16:19.618Z,985.42
2019-02-02T03:17:19.584Z,985.39
2019-02-02T03:18:19.567Z,985.42
2019-02-02T03:19:19.554Z,985.42
2019-02-02T03:20:19.546Z,985.37
2019-02-02T03:21:19.599Z,985.41
2019-02-02T03:22:19.538Z,985.39
2019-02-02T03:23:19.515Z,985.42
2019-02-02T03:24:19.495Z,985.43
2019-02-02T03:25:19.476Z,985.40
2019-02-02T03:26:19.501Z,985.45
2019-02-02T03:27:19.468Z,985.45
2019-02-02T03:28:19.446Z,985.48
2019-02-02T03:29:19.441Z,985.50
2019-02-02T03:30:19.513Z,985.48
2019-02-02T03:31:19.418Z,985.49
2019-02-02T03:32:19.765Z,985.52
2019-02-02T03:33:19.674Z,985.49
2019-02-02T03:34:19.401Z,985.51
2019-02-02T03:35:19.374Z,985.46
2019-02-02T03:36:19.358Z,985.49
2019-02-02T03:37:19.356Z,985.45
2019-02-02T03:38:19.348Z,985.49
2019-02-02T03:39:19.374Z,985.47
2019-02-02T03:40:19.336Z,985.45
2019-02-02T03:41:19.306Z,985.48
2019-02-02T03:42:19.381Z,985.50
2019-02-02T03:43:19.288Z,985.52
2019-02-02T03:44:19.263Z,985.50
2019-02-02T03:45:19.282Z,985.53
2019-02-02T03:46:19.326Z,985.49
2019-02-02T03:47:19.262Z,985.54
2019-02-02T03:48:19.225Z,985.53
2019-02-02T03:49:19.209Z,985.52
2019-02-02T03:50:19.205Z,985.59
2019-02-02T03:51:19.230Z,985.57
2019-02-02T03:52:19.223Z,985.59
2019-02-02T03:53:19.191Z,985.59
2019-02-02T03:54:19.152Z,985.58
2019-02-02T03:55:19.162Z,985.61
2019-02-02T03:56:19.192Z,985.63
2019-02-02T03:57:19.114Z,985.61
2019-02-02T03:58:19.149Z,985.61
2019-02-02T03:59:19.095Z,985.61
2019-02-02T04:00:19.079Z,985.63
2019-02-02T04:01:19.082Z,985.64
2019-02-02T04:02:19.071Z,985.60
2019-02-02T04:03:19.057Z,985.66
2019-02-02T04:04:19.034Z,985.65
2019-02-02T04:05:19.025Z,985.64
2019-02-02T04:06:19.022Z,985.66
2019-02-02T04:07:19.016Z,985.66
2019-02-02T04:08:19.009Z,985.64
2019-02-02T04:09:19.042Z,985.68
2019-02-02T04:10:18.969Z,985.70
2019-02-02T04:11:18.960Z,985.67
2019-02-02T04:12:19.041Z,985.69
2019-02-02T04:13:18.933Z,985.68
2019-02-02T04:14:18.924Z,985.65
2019-02-02T04:15:18.933Z,985.65
2019-02-02T04:16:18.908Z,985.62
2019-02-02T04:17:18.907Z,985.65
2019-02-02T04:18:18.892Z,985.64
2019-02-02T04:19:18.877Z,985.64
2019-02-02T04:20:18.960Z,985.64
2019-02-02T04:21:18.855Z,985.64
2019-02-02T04:22:18.843Z,985.64
2019-02-02T04:23:18.826Z,985.66
2019-02-02T04:24:18.834Z,985.66
2019-02-02T04:25:18.798Z,985.61
2019-02-02T04:26:18.793Z,985.62
2019-02-02T04:27:18.813Z,985.65
2019-02-02T04:28:18.783Z,985.61
2019-02-02T04:29:18.752Z,985.65
2019-02-02T04:30:18.739Z,985.66
2019-02-02T04:31:18.732Z,985.67
2019-02-02T04:32:18.716Z,985.64
2019-02-02T04:33:18.741Z,985.66
2019-02-02T04:34:18.693Z,985.70
2019-02-02T04:35:18.688Z,985.68
2019-02-02T04:36:18.738Z,985.66
2019-02-02T04:37:18.668Z,985.64
2019-02-02T04:38:18.671Z,985.65
2019-02-02T04:39:18.645Z,985.67
2019-02-02T04:40:18.626Z,985.68
2019-02-02T04:41:18.667Z,985.69
2019-02-02T04:42:18.703Z,985.70
2019-02-02T04:43:18.608Z,985.72
2019-02-02T04:44:18.609Z,985.75
2019-02-02T04:45:18.701Z,985.76
2019-02-02T04:46:18.629Z,985.75
2019-02-02T04:47:18.600Z,985.77
2019-02-02T04:48:18.539Z,985.78
2019-02-02T04:49:18.538Z,985.78
2019-02-02T04:50:18.526Z,985.79
2019-02-02T04:51:18.508Z,985.74
2019-02-02T04:52:18.497Z,985.76
2019-02-02T04:53:18.484Z,985.76
2019-02-02T04:54:18.483Z,985.76
2019-02-02T04:55:18.460Z,985.75
2019-02-02T04:56:18.463Z,985.74
2019-02-02T04:57:18.440Z,985.80
2019-02-02T04:58:18.433Z,985.79
2019-02-02T04:59:28.783Z,985.84
2019-02-02T05:00:19.414Z,985.81
2019-02-02T05:01:18.396Z,985.88
2019-02-02T05:02:18.397Z,985.89
2019-02-02T05:03:18.399Z,985.88
2019-02-02T05:04:18.400Z,985.91
2019-02-02T05:05:18.348Z,985.94
2019-02-02T05:06:18.351Z,985.96
2019-02-02T05:07:18.325Z,985.94
2019-02-02T05:08:18.334Z,985.96
2019-02-02T05:09:18.325Z,985.95
2019-02-02T05:10:18.312Z,985.97
2019-02-02T05:11:18.290Z,985.99
2019-02-02T05:12:18.302Z,986.00
2019-02-02T05:13:18.263Z,985.97
2019-02-02T05:14:18.261Z,985.98
2019-02-02T05:15:18.243Z,986.01
2019-02-02T05:16:18.245Z,986.04
2019-02-02T05:17:18.256Z,986.00
2019-02-02T05:18:18.209Z,985.99
2019-02-02T05:19:18.206Z,985.99
2019-02-02T05:20:18.189Z,986.04
2019-02-02T05:21:18.162Z,986.01
2019-02-02T05:22:18.158Z,986.00
2019-02-02T05:23:18.149Z,986.05
2019-02-02T05:24:18.182Z,986.02
2019-02-02T05:25:18.207Z,986.06
2019-02-02T05:26:18.130Z,986.04
2019-02-02T05:27:18.100Z,986.08
2019-02-02T05:28:18.109Z,986.04
2019-02-02T05:29:18.265Z,986.06
2019-02-02T05:30:18.064Z,986.09
2019-02-02T05:31:18.053Z,986.08
2019-02-02T05:32:18.040Z,986.07
2019-02-02T05:33:18.030Z,986.06
2019-02-02T05:34:18.021Z,986.10
2019-02-02T05:35:18.045Z,986.09
2019-02-02T05:36:18.005Z,986.10
2019-02-02T05:37:17.978Z,986.11
2019-02-02T05:38:18.093Z,986.08
2019-02-02T05:39:17.957Z,986.10
2019-02-02T05:40:17.957Z,986.09
2019-02-02T05:41:17.944Z,986.08
2019-02-02T05:42:17.964Z,986.05
2019-02-02T05:43:17.947Z,986.07
2019-02-02T05:44:17.947Z,986.07
2019-02-02T05:45:17.996Z,986.07
2019-02-02T05:46:17.885Z,986.04
2019-02-02T05:47:17.932Z,986.03
2019-02-02T05:48:17.869Z,986.05
2019-02-02T05:49:17.882Z,986.02
2019-02-02T05:50:17.859Z,986.06
2019-02-02T05:51:17.837Z,986.03
2019-02-02T05:52:17.859Z,986.00
2019-02-02T05:53:17.834Z,985.99
2019-02-02T05:54:17.900Z,985.96
2019-02-02T05:55:18.608Z,986.15
2019-02-02T05:56:17.861Z,986.18
2019-02-02T05:57:17.776Z,986.19
2019-02-02T05:58:17.766Z,986.27
2019-02-02T05:59:17.738Z,986.27
2019-02-02T06:00:18.081Z,986.30
2019-02-02T06:01:17.712Z,986.32
2019-02-02T06:02:17.699Z,986.34
2019-02-02T06:03:17.748Z,986.35
2019-02-02T06:04:20.428Z,986.33
2019-02-02T06:05:17.678Z,986.30
2019-02-02T06:06:17.692Z,986.35
2019-02-02T06:07:17.641Z,986.37
2019-02-02T06:08:17.671Z,986.37
2019-02-02T06:09:17.621Z,986.49
2019-02-02T06:10:17.623Z,986.47
2019-02-02T06:11:17.641Z,986.49
2019-02-02T06:12:17.687Z,986.45
2019-02-02T06:13:17.576Z,986.48
2019-02-02T06:14:17.582Z,986.47
2019-02-02T06:15:17.563Z,986.50
2019-02-02T06:16:17.550Z,986.47
2019-02-02T06:17:17.529Z,986.51
2019-02-02T06:18:17.579Z,986.49
2019-02-02T06:19:17.510Z,986.51
2019-02-02T06:20:17.512Z,986.55
2019-02-02T06:21:17.486Z,986.56
2019-02-02T06:22:17.506Z,986.58
2019-02-02T06:23:17.479Z,986.64
2019-02-02T06:24:17.462Z,986.59
2019-02-02T06:25:17.549Z,986.64
2019-02-02T06:26:17.422Z,986.64
2019-02-02T06:27:17.414Z,986.63
2019-02-02T06:28:17.421Z,986.66
2019-02-02T06:29:17.393Z,986.63
2019-02-02T06:30:17.390Z,986.69
2019-02-02T06:31:17.380Z,986.71
2019-02-02T06:32:17.432Z,986.70
2019-02-02T06:33:17.402Z,986.72
2019-02-02T06:34:17.330Z,986.76
2019-02-02T06:35:17.334Z,986.77
2019-02-02T06:36:17.318Z,986.75
2019-02-02T06:37:17.295Z,986.77
2019-02-02T06:38:17.295Z,986.78
2019-02-02T06:39:17.311Z,986.83
2019-02-02T06:40:17.265Z,986.78
2019-02-02T06:41:17.291Z,986.81
2019-02-02T06:42:17.324Z,986.80
2019-02-02T06:43:17.244Z,986.84
2019-02-02T06:44:17.249Z,986.88
2019-02-02T06:45:17.229Z,986.86
2019-02-02T06:46:17.199Z,986.92
2019-02-02T06:47:17.204Z,986.90
2019-02-02T06:48:17.175Z,986.89
2019-02-02T06:49:17.167Z,986.89
2019-02-02T06:50:17.156Z,986.89
2019-02-02T06:51:17.188Z,986.93
2019-02-02T06:52:17.156Z,986.91
2019-02-02T06:53:17.142Z,986.96
2019-02-02T06:54:17.126Z,986.98
2019-02-02T06:55:17.092Z,986.97
2019-02-02T06:56:17.126Z,987.03
2019-02-02T06:57:17.090Z,987.06
2019-02-02T06:58:17.057Z,987.08
2019-02-02T06:59:17.056Z,987.10
2019-02-02T07:00:17.046Z,987.10
2019-02-02T07:01:17.035Z,987.14
2019-02-02T07:02:17.019Z,987.10
2019-02-02T07:03:17.010Z,987.14
2019-02-02T07:04:16.996Z,987.11
2019-02-02T07:05:16.982Z,987.12
2019-02-02T07:06:17.027Z,987.20
2019-02-02T07:07:16.964Z,987.18
2019-02-02T07:08:16.943Z,987.18
2019-02-02T07:09:16.942Z,987.19
2019-02-02T07:10:16.942Z,987.21
2019-02-02T07:11:16.929Z,987.20
2019-02-02T07:12:16.987Z,987.19
2019-02-02T07:13:16.924Z,987.14
2019-02-02T07:14:16.879Z,987.18
2019-02-02T07:15:16.890Z,987.18
2019-02-02T07:16:16.938Z,987.18
2019-02-02T07:17:16.851Z,987.20
2019-02-02T07:18:16.830Z,987.16
2019-02-02T07:19:16.871Z,987.18
2019-02-02T07:20:16.814Z,987.23
2019-02-02T07:21:16.813Z,987.20
2019-02-02T07:22:16.797Z,987.30
2019-02-02T07:23:16.774Z,987.25
2019-02-02T07:24:16.774Z,987.30
2019-02-02T07:25:16.794Z,987.22
2019-02-02T07:26:16.778Z,987.21
2019-02-02T07:27:16.741Z,987.25
2019-02-02T07:28:16.822Z,987.25
2019-02-02T07:29:16.712Z,987.27
2019-02-02T07:30:27.578Z,987.30
2019-02-02T07:31:17.720Z,987.29
2019-02-02T07:32:16.671Z,987.29
2019-02-02T07:33:16.674Z,987.32
2019-02-02T07:34:16.675Z,987.37
2019-02-02T07:35:16.737Z,987.32
2019-02-02T07:36:16.640Z,987.38
2019-02-02T07:37:16.626Z,987.36
2019-02-02T07:38:16.602Z,987.41
2019-02-02T07:39:16.607Z,987.42
2019-02-02T07:40:16.750Z,987.44
2019-02-02T07:41:16.584Z,987.44
2019-02-02T07:42:16.615Z,987.47
2019-02-02T07:43:16.549Z,987.46
2019-02-02T07:44:16.568Z,987.51
2019-02-02T07:45:16.536Z,987.52
2019-02-02T07:46:16.541Z,987.48
2019-02-02T07:47:16.508Z,987.53
2019-02-02T07:48:16.507Z,987.57
2019-02-02T07:49:16.507Z,987.53
2019-02-02T07:50:16.469Z,987.58
2019-02-02T07:51:16.489Z,987.61
2019-02-02T07:52:16.476Z,987.63
2019-02-02T07:53:16.443Z,987.69
2019-02-02T07:54:16.459Z,987.72
2019-02-02T07:55:16.413Z,987.73
2019-02-02T07:56:16.400Z,987.75
2019-02-02T07:57:16.473Z,987.78
2019-02-02T07:58:16.380Z,987.81
2019-02-02T07:59:16.396Z,987.79
2019-02-02T08:00:16.371Z,987.85
2019-02-02T08:01:16.364Z,987.87
2019-02-02T08:02:16.367Z,987.89
2019-02-02T08:03:16.377Z,987.87
2019-02-02T08:04:16.327Z,987.84
2019-02-02T08:05:16.306Z,987.88
2019-02-02T08:06:16.296Z,987.92
2019-02-02T08:07:16.309Z,987.88
2019-02-02T08:08:17.166Z,987.90
2019-02-02T08:09:16.266Z,987.91
2019-02-02T08:10:16.359Z,987.89
2019-02-02T08:11:16.228Z,987.91
2019-02-02T08:12:19.376Z,987.94
2019-02-02T08:13:16.252Z,987.89
2019-02-02T08:14:16.217Z,987.93
2019-02-02T08:15:16.246Z,987.92
2019-02-02T08:16:16.185Z,987.94
2019-02-02T08:17:16.229Z,987.96
2019-02-02T08:18:16.154Z,987.96
2019-02-02T08:19:16.163Z,987.97
2019-02-02T08:20:16.163Z,988.00
2019-02-02T08:21:16.148Z,988.06
2019-02-02T08:22:16.163Z,988.08
2019-02-02T08:23:16.121Z,988.09
2019-02-02T08:24:16.102Z,988.15
2019-02-02T08:25:16.113Z,988.18
2019-02-02T08:26:16.062Z,988.22
2019-02-02T08:27:16.139Z,988.20
2019-02-02T08:28:16.082Z,988.20
2019-02-02T08:29:16.028Z,988.22
2019-02-02T08:30:16.678Z,988.21
2019-02-02T08:31:16.034Z,988.23
2019-02-02T08:32:16.059Z,988.22
2019-02-02T08:33:15.985Z,988.25
2019-02-02T08:34:15.986Z,988.29
2019-02-02T08:35:15.980Z,988.33
2019-02-02T08:36:16.023Z,988.37
2019-02-02T08:37:15.965Z,988.35
2019-02-02T08:38:15.958Z,988.34
2019-02-02T08:39:15.936Z,988.39
2019-02-02T08:40:15.904Z,988.38
2019-02-02T08:41:15.962Z,988.40
2019-02-02T08:42:15.993Z,988.45
2019-02-02T08:43:15.961Z,988.48
2019-02-02T08:44:15.952Z,988.53
2019-02-02T08:45:15.847Z,988.55
2019-02-02T08:46:15.875Z,988.57
2019-02-02T08:47:15.830Z,988.59
2019-02-02T08:48:15.889Z,988.62
2019-02-02T08:49:15.821Z,988.67
2019-02-02T08:50:15.841Z,988.67
2019-02-02T08:51:15.927Z,988.74
2019-02-02T08:52:15.804Z,988.69
2019-02-02T08:53:15.836Z,988.66
2019-02-02T08:54:15.790Z,988.74
2019-02-02T08:55:15.784Z,988.75
2019-02-02T08:56:15.802Z,988.73
2019-02-02T08:57:15.760Z,988.77
2019-02-02T08:58:15.836Z,988.78
2019-02-02T08:59:15.741Z,988.76
2019-02-02T09:00:15.731Z,988.76
2019-02-02T09:01:15.684Z,988.81
2019-02-02T09:02:16.106Z,988.82
2019-02-02T09:03:15.673Z,988.82
2019-02-02T09:04:15.661Z,988.82
2019-02-02T09:05:15.736Z,988.82
2019-02-02T09:06:15.621Z,988.85
2019-02-02T09:07:15.594Z,988.81
2019-02-02T09:08:15.722Z,988.87
2019-02-02T09:09:15.584Z,988.88
2019-02-02T09:10:15.585Z,988.87
2019-02-02T09:11:15.604Z,988.93
2019-02-02T09:12:20.461Z,988.91
2019-02-02T09:13:15.539Z,988.94
2019-02-02T09:14:15.515Z,988.91
2019-02-02T09:15:15.508Z,988.94
2019-02-02T09:16:15.520Z,988.94
2019-02-02T09:17:15.486Z,988.94
2019-02-02T09:18:15.973Z,988.92
2019-02-02T09:19:15.514Z,988.91
2019-02-02T09:20:15.469Z,988.94
2019-02-02T09:21:15.506Z,988.90
2019-02-02T09:22:15.553Z,988.94
2019-02-02T09:23:15.475Z,988.95
2019-02-02T09:24:15.402Z,988.91
2019-02-02T09:25:15.422Z,988.94
2019-02-02T09:26:15.431Z,988.92
2019-02-02T09:27:15.413Z,988.93
2019-02-02T09:28:15.466Z,988.96
2019-02-02T09:29:15.472Z,988.94
2019-02-02T09:30:15.531Z,988.94
2019-02-02T09:31:16.183Z,988.96
2019-02-02T09:32:15.338Z,988.94
2019-02-02T09:33:15.402Z,988.94
2019-02-02T09:34:15.333Z,988.91
2019-02-02T09:35:15.282Z,988.91
2019-02-02T09:36:16.847Z,988.91
2019-02-02T09:37:15.305Z,988.93
2019-02-02T09:38:15.255Z,988.95
2019-02-02T09:39:15.283Z,988.96
2019-02-02T09:40:15.351Z,988.93
2019-02-02T09:41:15.214Z,988.91
2019-02-02T09:42:20.023Z,988.94
2019-02-02T09:43:15.226Z,988.96
2019-02-02T09:44:15.208Z,988.92
2019-02-02T09:45:15.180Z,988.94
2019-02-02T09:46:15.193Z,988.95
2019-02-02T09:47:15.199Z,988.95
2019-02-02T09:48:15.144Z,989.00
2019-02-02T09:49:15.467Z,988.99
2019-02-02T09:50:15.131Z,989.01
2019-02-02T09:51:15.125Z,989.01
2019-02-02T09:52:15.089Z,988.99
2019-02-02T09:53:15.081Z,989.02
2019-02-02T09:54:26.122Z,989.04
2019-02-02T09:55:16.128Z,989.04
2019-02-02T09:56:15.071Z,989.09
2019-02-02T09:57:17.102Z,989.08
2019-02-02T09:58:15.023Z,989.10
2019-02-02T09:59:15.038Z,989.10
2019-02-02T10:00:15.054Z,989.11
2019-02-02T10:01:14.992Z,989.13
2019-02-02T10:02:15.031Z,989.11
2019-02-02T10:03:14.959Z,989.15
2019-02-02T10:04:14.963Z,989.13
2019-02-02T10:05:15.031Z,989.17
2019-02-02T10:06:14.948Z,989.17
2019-02-02T10:07:14.984Z,989.20
2019-02-02T10:08:14.932Z,989.22
2019-02-02T10:09:15.016Z,989.24
2019-02-02T10:10:14.933Z,989.25
2019-02-02T10:11:14.909Z,989.26
2019-02-02T10:12:21.121Z,989.26
2019-02-02T10:13:14.861Z,989.27
2019-02-02T10:14:14.885Z,989.31
2019-02-02T10:15:14.834Z,989.29
2019-02-02T10:16:14.839Z,989.35
2019-02-02T10:17:14.833Z,989.32
2019-02-02T10:18:14.816Z,989.35
2019-02-02T10:19:14.973Z,989.37
2019-02-02T10:20:14.791Z,989.40
2019-02-02T10:21:14.775Z,989.38
2019-02-02T10:22:14.788Z,989.39
2019-02-02T10:23:15.024Z,989.40
2019-02-02T10:24:14.721Z,989.44
2019-02-02T10:25:14.752Z,989.44
2019-02-02T10:26:14.719Z,989.43
2019-02-02T10:27:14.854Z,989.43
2019-02-02T10:28:14.706Z,989.46
2019-02-02T10:29:14.706Z,989.47
2019-02-02T10:30:14.690Z,989.46
2019-02-02T10:31:14.696Z,989.43
2019-02-02T10:32:14.638Z,989.43
2019-02-02T10:33:14.677Z,989.40
2019-02-02T10:34:14.616Z,989.43
2019-02-02T10:35:14.723Z,989.43
2019-02-02T10:36:14.628Z,989.42
2019-02-02T10:37:14.582Z,989.42
2019-02-02T10:38:14.586Z,989.40
2019-02-02T10:39:14.603Z,989.41
2019-02-02T10:40:14.598Z,989.42
2019-02-02T10:41:14.534Z,989.46
2019-02-02T10:42:14.521Z,989.49
2019-02-02T10:43:14.511Z,989.51
2019-02-02T10:44:14.566Z,989.50
2019-02-02T10:45:14.529Z,989.52
2019-02-02T10:46:14.484Z,989.47
2019-02-02T10:47:14.463Z,989.51
2019-02-02T10:48:14.461Z,989.57
2019-02-02T10:49:14.480Z,989.56
2019-02-02T10:50:14.544Z,989.56
2019-02-02T10:51:14.422Z,989.56
2019-02-02T10:52:14.415Z,989.58
2019-02-02T10:53:14.401Z,989.58
2019-02-02T10:54:14.387Z,989.61
2019-02-02T10:55:14.436Z,989.62
2019-02-02T10:56:14.394Z,989.63
2019-02-02T10:57:14.355Z,989.65
2019-02-02T10:58:14.340Z,989.65
2019-02-02T10:59:14.427Z,989.71
2019-02-02T11:00:14.365Z,989.65
2019-02-02T11:01:14.328Z,989.66
2019-02-02T11:02:14.366Z,989.66
2019-02-02T11:03:14.311Z,989.72
2019-02-02T11:04:14.307Z,989.66
2019-02-02T11:05:14.415Z,989.68
2019-02-02T11:06:14.301Z,989.70
2019-02-02T11:07:14.369Z,989.77
2019-02-02T11:08:14.263Z,989.74
2019-02-02T11:09:14.264Z,989.83
2019-02-02T11:10:14.285Z,989.82
2019-02-02T11:11:14.356Z,989.84
2019-02-02T11:12:14.289Z,989.85
2019-02-02T11:13:16.349Z,989.84
2019-02-02T11:14:14.222Z,989.82
2019-02-02T11:15:14.412Z,989.78
2019-02-02T11:16:14.172Z,989.79
2019-02-02T11:17:14.150Z,989.81
2019-02-02T11:18:14.185Z,989.83
2019-02-02T11:19:14.410Z,989.84
2019-02-02T11:20:14.204Z,989.85
2019-02-02T11:21:14.240Z,989.87
2019-02-02T11:22:14.178Z,989.90
2019-02-02T11:23:14.053Z,989.94
2019-02-02T11:24:14.057Z,989.93
2019-02-02T11:25:14.096Z,989.96
2019-02-02T11:26:14.162Z,989.99
2019-02-02T11:27:14.279Z,989.99
2019-02-02T11:28:14.192Z,990.03
2019-02-02T11:29:14.149Z,990.09
2019-02-02T11:30:14.074Z,990.11
2019-02-02T11:31:14.034Z,990.14
2019-02-02T11:32:13.958Z,990.15
2019-02-02T11:33:13.982Z,990.17
2019-02-02T11:34:13.947Z,990.12
2019-02-02T11:35:13.920Z,990.13
2019-02-02T11:36:15.341Z,990.19
2019-02-02T11:37:14.832Z,990.17
2019-02-02T11:38:13.890Z,990.24
2019-02-02T11:39:13.874Z,990.26
2019-02-02T11:40:13.877Z,990.24
2019-02-02T11:41:13.873Z,990.26
2019-02-02T11:42:18.656Z,990.29
2019-02-02T11:43:13.841Z,990.32
2019-02-02T11:44:13.820Z,990.30
2019-02-02T11:45:13.815Z,990.34
2019-02-02T11:46:13.891Z,990.38
2019-02-02T11:47:13.820Z,990.37
2019-02-02T11:48:15.101Z,990.42
2019-02-02T11:49:13.820Z,990.42
2019-02-02T11:50:13.896Z,990.44
2019-02-02T11:51:13.754Z,990.46
2019-02-02T11:52:13.726Z,990.52
2019-02-02T11:53:13.785Z,990.53
2019-02-02T11:54:13.716Z,990.56
2019-02-02T11:55:13.702Z,990.60
2019-02-02T11:56:13.741Z,990.56
2019-02-02T11:57:13.704Z,990.62
2019-02-02T11:58:13.682Z,990.57
2019-02-02T11:59:13.661Z,990.59
2019-02-02T12:00:16.292Z,990.57
2019-02-02T12:01:13.675Z,990.57
2019-02-02T12:02:14.905Z,990.59
2019-02-02T12:03:13.620Z,990.63
2019-02-02T12:04:13.645Z,990.59
2019-02-02T12:05:13.586Z,990.61
2019-02-02T12:06:13.615Z,990.60
2019-02-02T12:07:13.553Z,990.59
2019-02-02T12:08:13.559Z,990.58
2019-02-02T12:09:13.580Z,990.63
2019-02-02T12:10:13.548Z,990.62
2019-02-02T12:11:13.624Z,990.67
2019-02-02T12:12:13.601Z,990.66
2019-02-02T12:13:13.501Z,990.69
2019-02-02T12:14:13.549Z,990.71
2019-02-02T12:15:13.474Z,990.69
2019-02-02T12:16:13.501Z,990.72
2019-02-02T12:17:13.609Z,990.74
2019-02-02T12:18:13.456Z,990.75
2019-02-02T12:19:13.453Z,990.77
2019-02-02T12:20:13.415Z,990.80
2019-02-02T12:21:13.416Z,990.86
2019-02-02T12:22:13.449Z,990.84
2019-02-02T12:23:13.448Z,990.89
2019-02-02T12:24:16.225Z,990.89
2019-02-02T12:25:13.415Z,990.89
2019-02-02T12:26:13.379Z,990.92
2019-02-02T12:27:13.350Z,990.93
2019-02-02T12:28:13.372Z,990.96